createdAt,value
2022-11-14T00:01:26.482Z,34.30
2022-11-14T00:03:55.942Z,37.85
2022-11-14T00:06:24.048Z,35.42
2022-11-14T00:08:52.233Z,39.03
2022-11-14T00:11:20.538Z,38.78
2022-11-14T00:13:48.677Z,42.25
2022-11-14T00:16:16.917Z,36.45
2022-11-14T00:18:45.061Z,37.17
2022-11-14T00:21:14.589Z,41.42
2022-11-14T00:23:42.816Z,42.00
2022-11-14T00:26:11.160Z,41.75
2022-11-14T00:28:39.368Z,40.72
2022-11-14T00:31:08.207Z,44.03
2022-11-14T00:33:36.284Z,42.30
2022-11-14T00:36:04.851Z,43.72
2022-11-14T00:38:34.491Z,44.67
2022-11-14T00:41:02.679Z,42.17
2022-11-14T00:43:30.806Z,39.88
2022-11-14T00:45:59.274Z,38.88
2022-11-14T00:48:27.755Z,40.33
2022-11-14T00:50:56.199Z,43.08
2022-11-14T00:53:24.614Z,46.28
2022-11-14T00:55:54.225Z,45.45
2022-11-14T00:58:22.355Z,44.10
2022-11-14T01:00:51.140Z,43.20
2022-11-14T01:03:19.706Z,41.97
2022-11-14T01:05:50.339Z,44.35
2022-11-14T01:08:21.156Z,40.35
2022-11-14T01:10:51.546Z,42.63
2022-11-14T01:13:21.059Z,44.30
2022-11-14T01:15:50.724Z,47.75
2022-11-14T01:18:20.722Z,51.53
2022-11-14T01:20:50.024Z,43.35
2022-11-14T01:23:18.933Z,49.13
2022-11-14T01:25:47.027Z,44.05
2022-11-14T01:28:16.768Z,46.58
2022-11-14T01:30:47.326Z,41.50
2022-11-14T01:33:15.621Z,39.58
2022-11-14T01:35:43.779Z,40.80
2022-11-14T01:38:16.004Z,42.47
2022-11-14T01:40:44.977Z,44.90
2022-11-14T01:43:30.894Z,44.65
2022-11-14T01:46:03.621Z,49.67
2022-11-14T01:48:38.232Z,51.33
2022-11-14T01:51:16.387Z,44.63
2022-11-14T01:53:45.976Z,56.40
2022-11-14T01:56:18.442Z,68.22
2022-11-14T01:58:50.502Z,64.50
2022-11-14T02:01:20.266Z,59.75
2022-11-14T02:03:52.495Z,73.13
2022-11-14T02:06:23.638Z,73.90
2022-11-14T02:08:53.563Z,61.20
2022-11-14T02:11:21.701Z,61.65
2022-11-14T02:13:50.145Z,64.00
2022-11-14T02:16:19.965Z,43.90
2022-11-14T02:18:48.044Z,46.22
2022-11-14T02:21:17.567Z,34.58
2022-11-14T02:23:46.109Z,35.65
2022-11-14T02:26:14.324Z,36.85
2022-11-14T02:28:42.496Z,38.70
2022-11-14T02:31:10.802Z,41.55
2022-11-14T02:33:38.901Z,34.70
2022-11-14T02:36:07.894Z,39.33
2022-11-14T02:38:38.279Z,38.50
2022-11-14T02:41:06.823Z,37.30
2022-11-14T02:43:35.024Z,41.83
2022-11-14T02:46:05.803Z,43.42
2022-11-14T02:48:34.272Z,44.30
2022-11-14T02:51:02.377Z,46.67
2022-11-14T02:53:30.830Z,44.40
2022-11-14T02:56:00.272Z,40.40
2022-11-14T02:58:28.687Z,38.22
2022-11-14T03:01:19.065Z,43.53
2022-11-14T03:03:45.294Z,87.20
2022-11-14T03:06:13.505Z,109.30
2022-11-14T03:08:41.638Z,59.67
2022-11-14T03:11:11.880Z,63.67
2022-11-14T03:13:40.085Z,68.75
2022-11-14T03:16:09.057Z,71.50
2022-11-14T03:18:37.539Z,54.33
2022-11-14T03:21:10.228Z,38.35
2022-11-14T03:23:38.469Z,106.00
2022-11-14T03:26:08.534Z,32.05
2022-11-14T03:28:38.796Z,47.13
2022-11-14T03:31:08.285Z,30.45
2022-11-14T03:33:37.394Z,33.60
2022-11-14T03:36:06.731Z,96.28
2022-11-14T03:38:35.306Z,54.65
2022-11-14T03:41:03.537Z,124.72
2022-11-14T03:43:34.537Z,98.82
2022-11-14T03:46:04.711Z,86.70
2022-11-14T03:48:33.222Z,93.75
2022-11-14T03:51:01.757Z,106.63
2022-11-14T03:53:29.854Z,110.18
2022-11-14T03:55:58.158Z,139.63
2022-11-14T03:58:26.861Z,247.43
2022-11-14T04:00:56.111Z,151.80
2022-11-14T04:03:26.449Z,93.47
2022-11-14T04:05:54.765Z,113.72
2022-11-14T04:08:22.888Z,221.23
2022-11-14T04:10:51.189Z,212.25
2022-11-14T04:13:19.399Z,38.97
2022-11-14T04:15:47.475Z,70.38
2022-11-14T04:18:15.683Z,65.60
2022-11-14T04:20:45.222Z,34.15
2022-11-14T04:23:13.326Z,44.22
2022-11-14T04:25:41.511Z,42.90
2022-11-14T04:28:09.765Z,36.65
2022-11-14T04:30:38.140Z,33.83
2022-11-14T04:33:06.537Z,35.00
2022-11-14T04:35:34.811Z,32.30
2022-11-14T04:38:04.524Z,29.92
2022-11-14T04:40:32.868Z,38.35
2022-11-14T04:43:01.107Z,31.98
2022-11-14T04:45:29.314Z,36.85
2022-11-14T04:47:57.635Z,49.20
2022-11-14T04:50:25.946Z,43.05
2022-11-14T04:52:54.544Z,41.35
2022-11-14T04:55:24.307Z,41.35
2022-11-14T04:57:56.156Z,44.63
2022-11-14T05:00:24.853Z,43.80
2022-11-14T05:02:52.984Z,40.15
2022-11-14T05:05:21.475Z,41.03
2022-11-14T05:07:49.884Z,44.60
2022-11-14T05:10:18.064Z,58.63
2022-11-14T05:12:47.639Z,38.70
2022-11-14T05:15:16.149Z,57.25
2022-11-14T05:17:44.248Z,72.05
2022-11-14T05:20:13.558Z,53.22
2022-11-14T05:22:41.867Z,83.68
2022-11-14T05:25:10.894Z,55.97
2022-11-14T05:27:39.174Z,42.08
2022-11-14T05:30:10.200Z,45.42
2022-11-14T05:32:38.301Z,43.22
2022-11-14T05:35:07.626Z,49.33
2022-11-14T05:37:36.340Z,85.75
2022-11-14T05:40:05.941Z,92.13
2022-11-14T05:42:34.328Z,112.88
2022-11-14T05:45:02.621Z,90.53
2022-11-14T05:47:32.145Z,109.97
2022-11-14T05:50:00.413Z,96.88
2022-11-14T05:52:28.658Z,130.38
2022-11-14T05:54:56.772Z,121.38
2022-11-14T05:57:25.026Z,105.40
2022-11-14T05:59:53.438Z,118.15
2022-11-14T06:02:21.584Z,106.93
2022-11-14T06:04:51.310Z,142.93
2022-11-14T06:07:20.531Z,98.07
2022-11-14T06:09:48.785Z,99.80
2022-11-14T06:12:17.089Z,67.75
2022-11-14T06:14:45.298Z,79.07
2022-11-14T06:17:13.436Z,56.38
2022-11-14T06:19:41.644Z,59.92
2022-11-14T06:22:11.197Z,56.15
2022-11-14T06:24:39.282Z,43.47
2022-11-14T06:27:07.496Z,39.45
2022-11-14T06:29:35.890Z,41.03
2022-11-14T06:32:04.145Z,41.17
2022-11-14T06:34:32.728Z,41.65
2022-11-14T06:37:00.977Z,37.70
2022-11-14T06:39:30.589Z,38.50
2022-11-14T06:41:58.827Z,35.58
2022-11-14T06:44:30.828Z,42.08
2022-11-14T06:46:59.674Z,37.35
2022-11-14T06:49:27.959Z,39.45
2022-11-14T06:51:56.313Z,38.78
2022-11-14T06:54:25.000Z,39.75
2022-11-14T06:56:54.494Z,42.10
2022-11-14T06:59:22.584Z,39.83
2022-11-14T07:01:51.237Z,42.95
2022-11-14T07:04:19.680Z,43.17
2022-11-14T07:06:47.811Z,43.40
2022-11-14T07:09:16.497Z,45.17
2022-11-14T07:11:46.876Z,44.28
2022-11-14T07:14:16.430Z,41.88
2022-11-14T07:16:45.000Z,41.13
2022-11-14T07:19:13.254Z,43.85
2022-11-14T07:21:41.504Z,43.15
2022-11-14T07:24:09.977Z,41.53
2022-11-14T07:26:38.096Z,39.10
2022-11-14T07:29:06.181Z,39.15
2022-11-14T07:31:36.400Z,45.13
2022-11-14T07:34:06.062Z,39.05
2022-11-14T07:36:34.166Z,34.80
2022-11-14T07:39:02.427Z,29.35
2022-11-14T07:41:30.823Z,30.52
2022-11-14T07:43:58.883Z,29.25
2022-11-14T07:46:27.189Z,29.02
2022-11-14T07:48:56.949Z,29.30
2022-11-14T07:51:25.359Z,21.35
2022-11-14T07:53:54.648Z,21.02
2022-11-14T07:56:23.340Z,21.55
2022-11-14T07:58:51.681Z,19.80
2022-11-14T08:01:20.069Z,21.02
2022-11-14T08:03:48.185Z,17.65
2022-11-14T08:06:18.153Z,18.23
2022-11-14T08:08:46.436Z,17.92
2022-11-14T08:11:23.046Z,18.00
2022-11-14T08:14:02.806Z,16.25
2022-11-14T08:16:30.897Z,16.73
2022-11-14T08:18:59.022Z,16.55
2022-11-14T08:21:29.053Z,16.40
2022-11-14T08:23:57.162Z,18.58
2022-11-14T08:26:27.940Z,16.88
2022-11-14T08:28:59.907Z,16.27
2022-11-14T08:31:28.304Z,14.60
2022-11-14T08:33:56.393Z,16.17
2022-11-14T08:36:25.016Z,15.82
2022-11-14T08:39:00.532Z,17.33
2022-11-14T08:41:30.636Z,17.23
2022-11-14T08:43:58.735Z,16.08
2022-11-14T08:46:26.897Z,16.10
2022-11-14T08:48:55.419Z,18.40
2022-11-14T08:51:23.801Z,20.13
2022-11-14T08:53:52.587Z,19.85
2022-11-14T08:56:22.594Z,20.48
2022-11-14T08:58:51.156Z,20.55
2022-11-14T09:01:19.304Z,20.73
2022-11-14T09:03:47.871Z,23.05
2022-11-14T09:06:16.207Z,21.67
2022-11-14T09:08:44.320Z,23.65
2022-11-14T09:11:15.479Z,29.70
2022-11-14T09:13:48.457Z,24.80
2022-11-14T09:16:16.923Z,54.13
2022-11-14T09:18:45.063Z,78.18
2022-11-14T09:21:13.604Z,32.47
2022-11-14T09:23:42.351Z,52.65
2022-11-14T09:26:11.330Z,25.20
2022-11-14T09:28:39.468Z,62.97
2022-11-14T09:31:11.614Z,33.67
2022-11-14T09:33:40.096Z,33.78
2022-11-14T09:36:10.654Z,59.88
2022-11-14T09:38:39.091Z,34.08
2022-11-14T09:41:24.628Z,38.08
2022-11-14T09:44:29.877Z,64.30
2022-11-14T09:47:03.319Z,24.25
2022-11-14T09:49:36.737Z,61.42
2022-11-14T09:52:13.160Z,45.13
2022-11-14T09:54:47.991Z,28.95
2022-11-14T09:57:18.351Z,46.03
2022-11-14T09:59:46.678Z,41.15
2022-11-14T10:02:35.883Z,110.75
2022-11-14T10:05:19.078Z,45.75
2022-11-14T10:08:00.225Z,117.60
2022-11-14T10:10:39.693Z,31.40
2022-11-14T10:13:19.105Z,51.45
2022-11-14T10:15:55.182Z,33.65
2022-11-14T10:18:42.296Z,102.30
2022-11-14T10:21:29.977Z,33.88
2022-11-14T10:24:04.731Z,134.18
2022-11-14T10:26:37.544Z,45.15
2022-11-14T10:29:50.043Z,128.70
2022-11-14T10:32:30.664Z,47.50
2022-11-14T10:35:05.474Z,48.13
2022-11-14T10:37:38.032Z,45.97
2022-11-14T10:40:17.095Z,33.40
2022-11-14T10:42:48.844Z,34.17
2022-11-14T10:45:24.266Z,81.30
2022-11-14T10:47:57.817Z,67.47
2022-11-14T10:50:37.783Z,46.80
2022-11-14T10:53:16.014Z,96.75
2022-11-14T10:56:03.113Z,63.28
2022-11-14T10:58:46.724Z,56.22
2022-11-14T11:01:34.956Z,46.20
2022-11-14T11:04:15.202Z,49.25
2022-11-14T11:06:45.072Z,161.90
2022-11-14T11:09:34.914Z,93.00
2022-11-14T11:12:06.143Z,127.68
2022-11-14T11:14:35.352Z,141.50
2022-11-14T11:17:16.898Z,91.65
2022-11-14T11:19:45.445Z,114.43
2022-11-14T11:22:31.464Z,71.75
2022-11-14T11:24:59.567Z,116.43
2022-11-14T11:27:30.389Z,66.32
2022-11-14T11:30:09.168Z,126.40
2022-11-14T11:32:37.464Z,107.32
2022-11-14T11:35:13.821Z,160.15
2022-11-14T11:37:48.869Z,116.28
2022-11-14T11:40:23.812Z,172.48
2022-11-14T11:45:49.888Z,79.63
2022-11-14T11:48:20.482Z,43.45
2022-11-14T11:50:49.848Z,109.50
2022-11-14T11:53:25.444Z,66.85
2022-11-14T11:56:00.656Z,63.28
2022-11-14T11:58:32.700Z,97.78
2022-11-14T12:01:00.906Z,88.95
2022-11-14T12:03:30.122Z,113.53
2022-11-14T12:06:11.541Z,138.88
2022-11-14T12:08:53.333Z,81.30
2022-11-14T12:11:25.190Z,112.40
2022-11-14T12:14:29.848Z,78.55
2022-11-14T12:17:29.409Z,87.00
2022-11-14T12:20:28.971Z,64.35
2022-11-14T12:23:27.003Z,75.53
2022-11-14T12:26:15.594Z,94.65
2022-11-14T12:29:02.275Z,107.97
2022-11-14T12:31:34.448Z,61.47
2022-11-14T12:34:05.664Z,58.30
2022-11-14T12:36:36.018Z,82.03
2022-11-14T12:39:04.761Z,44.75
2022-11-14T12:41:38.340Z,68.53
2022-11-14T12:44:20.746Z,68.35
2022-11-14T12:47:14.657Z,51.55
2022-11-14T12:49:58.776Z,73.70
2022-11-14T12:52:48.977Z,48.72
2022-11-14T12:55:55.412Z,110.30
2022-11-14T12:58:43.894Z,67.82
2022-11-14T13:01:36.270Z,69.53
2022-11-14T13:04:19.743Z,51.40
2022-11-14T13:07:09.249Z,83.10
2022-11-14T13:09:54.642Z,56.22
2022-11-14T13:12:51.629Z,61.83
2022-11-14T13:16:06.163Z,48.75
2022-11-14T13:18:52.285Z,77.63
2022-11-14T13:21:45.702Z,60.55
2022-11-14T13:24:16.988Z,44.95
2022-11-14T13:26:50.332Z,52.85
2022-11-14T13:29:56.201Z,44.45
2022-11-14T13:33:06.733Z,44.13
2022-11-14T13:36:02.316Z,51.03
2022-11-14T13:39:11.523Z,57.33
2022-11-14T13:42:21.234Z,74.05
2022-11-14T13:45:13.434Z,60.50
2022-11-14T13:48:08.381Z,50.35
2022-11-14T13:50:38.398Z,43.08
2022-11-14T13:53:16.502Z,43.67
2022-11-14T13:55:57.557Z,43.47
2022-11-14T13:58:41.282Z,47.47
2022-11-14T14:01:22.460Z,47.00
2022-11-14T14:04:05.160Z,46.30
2022-11-14T14:06:49.959Z,48.90
2022-11-14T14:09:27.492Z,49.80
2022-11-14T14:12:09.909Z,46.55
2022-11-14T14:15:12.353Z,51.17
2022-11-14T14:17:51.284Z,46.10
2022-11-14T14:20:31.506Z,44.65
2022-11-14T14:23:08.134Z,41.65
2022-11-14T14:25:47.530Z,44.60
2022-11-14T14:28:24.081Z,43.35
2022-11-14T14:31:13.271Z,42.50
2022-11-14T14:33:42.993Z,42.67
2022-11-14T14:36:23.238Z,44.88
2022-11-14T14:38:52.803Z,45.10
2022-11-14T14:41:22.346Z,43.00
2022-11-14T14:43:54.673Z,41.83
2022-11-14T14:46:31.436Z,44.03
2022-11-14T14:49:01.110Z,46.85
2022-11-14T14:51:33.943Z,44.60
2022-11-14T14:54:02.906Z,47.73
2022-11-14T14:56:32.951Z,42.00
2022-11-14T14:59:17.629Z,43.67
2022-11-14T15:01:45.905Z,49.40
2022-11-14T15:04:16.546Z,42.17
2022-11-14T15:06:48.045Z,46.50
2022-11-14T15:09:24.306Z,43.55
2022-11-14T15:11:58.971Z,48.70
2022-11-14T15:14:29.963Z,44.38
2022-11-14T15:16:59.914Z,43.45
2022-11-14T15:19:35.797Z,43.10
2022-11-14T15:22:06.065Z,45.63
2022-11-14T15:24:34.177Z,45.53
2022-11-14T15:27:06.524Z,42.65
2022-11-14T15:29:34.667Z,45.80
2022-11-14T15:32:03.851Z,42.85
2022-11-14T15:34:34.157Z,44.83
2022-11-14T15:37:23.703Z,39.65
2022-11-14T15:39:52.358Z,45.65
2022-11-14T15:42:28.870Z,43.85
2022-11-14T15:44:58.122Z,47.40
2022-11-14T15:47:28.289Z,44.78
2022-11-14T15:50:02.574Z,44.78
2022-11-14T15:52:35.672Z,48.83
2022-11-14T15:55:05.039Z,43.10
2022-11-14T15:57:36.526Z,54.38
2022-11-14T16:00:05.726Z,50.70
2022-11-14T16:02:35.625Z,47.03
2022-11-14T16:05:05.996Z,46.85
2022-11-14T16:07:34.467Z,48.42
2022-11-14T16:10:02.743Z,45.72
2022-11-14T16:12:30.967Z,52.90
2022-11-14T16:15:00.683Z,49.90
2022-11-14T16:17:28.784Z,49.92
2022-11-14T16:20:00.146Z,50.33
2022-11-14T16:22:28.500Z,52.22
2022-11-14T16:24:56.867Z,51.17
2022-11-14T16:27:25.264Z,47.72
2022-11-14T16:29:53.713Z,49.85
2022-11-14T16:32:26.689Z,49.58
2022-11-14T16:34:55.161Z,51.17
2022-11-14T16:37:25.215Z,49.63
2022-11-14T16:39:53.545Z,53.28
2022-11-14T16:42:22.069Z,53.17
2022-11-14T16:44:50.952Z,52.05
2022-11-14T16:47:20.158Z,51.63
2022-11-14T16:49:50.674Z,52.33
2022-11-14T16:52:19.903Z,52.33
2022-11-14T16:54:48.111Z,52.97
2022-11-14T16:57:16.686Z,50.03
2022-11-14T16:59:44.883Z,51.60
2022-11-14T17:02:15.938Z,53.15
2022-11-14T17:04:45.115Z,54.05
2022-11-14T17:07:17.696Z,55.22
2022-11-14T17:09:50.109Z,61.40
2022-11-14T17:12:18.274Z,64.95
2022-11-14T17:14:46.436Z,60.28
2022-11-14T17:17:14.896Z,64.25
2022-11-14T17:19:46.097Z,58.17
2022-11-14T17:22:17.316Z,59.38
2022-11-14T17:24:45.732Z,69.03
2022-11-14T17:27:13.904Z,67.78
2022-11-14T17:29:42.244Z,67.35
2022-11-14T17:32:10.389Z,71.97
2022-11-14T17:34:38.509Z,81.10
2022-11-14T17:37:06.796Z,77.15
2022-11-14T17:39:36.306Z,77.57
2022-11-14T17:42:05.437Z,78.50
2022-11-14T17:44:33.852Z,81.95
2022-11-14T17:47:01.954Z,86.20
2022-11-14T17:49:30.103Z,88.13
2022-11-14T17:51:58.379Z,89.93
2022-11-14T17:54:26.506Z,86.53
2022-11-14T17:56:57.512Z,89.65
2022-11-14T17:59:25.948Z,92.30
2022-11-14T18:01:55.974Z,85.63
2022-11-14T18:04:24.178Z,89.65
2022-11-14T18:06:52.624Z,89.25
2022-11-14T18:09:22.097Z,87.80
2022-11-14T18:11:50.578Z,91.32
2022-11-14T18:14:20.388Z,90.53
2022-11-14T18:17:11.601Z,89.28
2022-11-14T18:19:37.082Z,91.10
2022-11-14T18:22:05.293Z,87.97
2022-11-14T18:24:33.491Z,90.78
2022-11-14T18:27:01.812Z,83.82
2022-11-14T18:29:31.349Z,87.93
2022-11-14T18:31:59.533Z,79.70
2022-11-14T18:34:27.810Z,78.90
2022-11-14T18:36:55.955Z,69.13
2022-11-14T18:39:26.107Z,68.28
2022-11-14T18:41:54.541Z,65.07
2022-11-14T18:44:24.230Z,68.80
2022-11-14T18:46:53.958Z,66.72
2022-11-14T18:49:22.682Z,63.67
2022-11-14T18:51:50.772Z,63.53
2022-11-14T18:54:18.987Z,64.07
2022-11-14T18:56:47.519Z,65.15
2022-11-14T18:59:15.593Z,69.00
2022-11-14T19:01:43.821Z,71.65
2022-11-14T19:04:13.731Z,74.00
2022-11-14T19:06:42.345Z,69.68
2022-11-14T19:09:12.970Z,73.25
2022-11-14T19:12:13.461Z,71.05
2022-11-14T19:14:42.693Z,78.90
2022-11-14T19:17:11.018Z,71.95
2022-11-14T19:19:40.675Z,71.95
2022-11-14T19:22:08.855Z,68.35
2022-11-14T19:24:37.161Z,80.93
2022-11-14T19:27:05.433Z,93.85
2022-11-14T19:29:33.488Z,75.47
2022-11-14T19:32:01.805Z,81.18
2022-11-14T19:34:30.090Z,88.90
2022-11-14T19:37:01.084Z,72.07
2022-11-14T19:39:29.991Z,83.60
2022-11-14T19:41:58.239Z,86.07
2022-11-14T19:44:26.865Z,79.72
2022-11-14T19:46:55.214Z,89.47
2022-11-14T19:49:23.693Z,97.55
2022-11-14T19:51:52.385Z,86.82
2022-11-14T19:54:22.410Z,91.18
2022-11-14T19:56:50.817Z,92.95
2022-11-14T19:59:23.069Z,87.07
2022-11-14T20:01:55.601Z,99.72
2022-11-14T20:04:24.193Z,92.03
2022-11-14T20:06:52.636Z,103.10
2022-11-14T20:09:22.562Z,96.78
2022-11-14T20:11:50.744Z,112.00
2022-11-14T20:14:19.060Z,103.10
2022-11-14T20:16:47.655Z,103.55
2022-11-14T20:19:16.239Z,101.70
2022-11-14T20:21:44.593Z,117.82
2022-11-14T20:24:15.471Z,120.90
2022-11-14T20:26:45.079Z,108.68
2022-11-14T20:29:13.397Z,111.00
2022-11-14T20:31:41.642Z,110.30
2022-11-14T20:34:11.281Z,109.28
2022-11-14T20:36:57.007Z,105.63
2022-11-14T20:39:27.818Z,112.97
2022-11-14T20:41:57.787Z,116.45
2022-11-14T20:44:25.970Z,115.88
2022-11-14T20:46:57.060Z,113.07
2022-11-14T20:49:25.324Z,115.88
2022-11-14T20:51:53.650Z,108.72
2022-11-14T20:54:21.930Z,112.88
2022-11-14T20:56:50.194Z,115.00
2022-11-14T20:59:19.725Z,121.03
2022-11-14T21:01:48.340Z,112.28
2022-11-14T21:04:16.750Z,104.15
2022-11-14T21:06:44.885Z,109.63
2022-11-14T21:09:13.332Z,105.32
2022-11-14T21:11:41.645Z,105.53
2022-11-14T21:14:11.558Z,107.90
2022-11-14T21:16:41.462Z,100.13
2022-11-14T21:19:09.690Z,104.68
2022-11-14T21:21:40.451Z,98.45
2022-11-14T21:24:09.242Z,107.20
2022-11-14T21:26:40.089Z,105.75
2022-11-14T21:29:12.438Z,93.13
2022-11-14T21:31:43.575Z,98.18
2022-11-14T21:34:13.778Z,100.82
2022-11-14T21:36:45.454Z,91.57
2022-11-14T21:39:16.705Z,96.93
2022-11-14T21:41:48.335Z,94.38
2022-11-14T21:44:17.983Z,90.60
2022-11-14T21:46:49.591Z,92.68
2022-11-14T21:49:17.903Z,97.90
2022-11-14T21:51:47.307Z,93.22
2022-11-14T21:54:15.679Z,92.03
2022-11-14T21:56:43.852Z,90.10
2022-11-14T21:59:16.972Z,89.85
2022-11-14T22:02:06.574Z,84.70
2022-11-14T22:04:35.546Z,92.82
2022-11-14T22:07:05.879Z,86.20
2022-11-14T22:09:34.776Z,83.35
2022-11-14T22:12:03.508Z,82.50
2022-11-14T22:14:31.764Z,85.15
2022-11-14T22:17:01.254Z,83.85
2022-11-14T22:19:29.509Z,85.05
2022-11-14T22:21:58.249Z,81.70
2022-11-14T22:24:26.495Z,80.53
2022-11-14T22:26:54.923Z,74.97
2022-11-14T22:29:23.743Z,80.93
2022-11-14T22:31:55.662Z,81.43
2022-11-14T22:34:25.338Z,80.18
2022-11-14T22:36:53.448Z,78.55
2022-11-14T22:39:21.806Z,75.25
2022-11-14T22:41:50.231Z,81.88
2022-11-14T22:44:18.330Z,72.63
2022-11-14T22:46:46.736Z,73.50
2022-11-14T22:49:19.709Z,74.97
2022-11-14T22:51:50.700Z,70.85
2022-11-14T22:54:20.866Z,71.47
2022-11-14T22:56:49.030Z,71.82
2022-11-14T22:59:17.238Z,72.45
2022-11-14T23:01:45.696Z,74.05
2022-11-14T23:04:13.886Z,70.47
2022-11-14T23:06:42.298Z,68.88
2022-11-14T23:09:12.038Z,66.75
2022-11-14T23:11:40.462Z,60.13
2022-11-14T23:14:08.623Z,63.63
2022-11-14T23:16:37.246Z,63.65
2022-11-14T23:19:06.070Z,65.15
2022-11-14T23:21:37.309Z,62.00
2022-11-14T23:24:08.465Z,59.75
2022-11-14T23:26:37.954Z,60.40
2022-11-14T23:29:06.547Z,58.25
2022-11-14T23:31:34.668Z,58.95
2022-11-14T23:34:02.794Z,56.60
2022-11-14T23:36:31.080Z,58.15
2022-11-14T23:38:59.191Z,50.78
2022-11-14T23:41:27.353Z,57.55
2022-11-14T23:43:57.185Z,52.95
2022-11-14T23:46:25.388Z,54.10
2022-11-14T23:48:54.572Z,50.83
2022-11-14T23:51:22.996Z,46.33
2022-11-14T23:53:52.005Z,53.08
2022-11-14T23:56:20.434Z,49.63
2022-11-14T23:58:48.714Z,48.13
